Time;durP1;ratioP1;P1;durP2;ratioP2;P2;SDS_P1;SDS_P2;PMS_P1;PMS_P2;Temp;Humidity;BMP_temperature;BMP_pressure;BME280_temperature;BME280_humidity;BME280_pressure;Samples;Min_cycle;Max_cycle;Signal;HPM_P1;HPM_P2
2024/01/16 00:01:45;;;;;;;17.90;16.10;;;1.50;99.90;;;;;;4933881;29;20323;-67
2024/01/16 00:04:13;;;;;;;23.83;16.13;;;1.50;99.90;;;;;;4908706;29;20279;-65
2024/01/16 00:06:40;;;;;;;16.93;15.57;;;1.50;99.90;;;;;;4934994;28;20219;-64
2024/01/16 00:09:11;;;;;;;21.67;14.90;;;1.50;99.90;;;;;;4933631;29;20216;-67
2024/01/16 00:11:42;;;;;;;17.90;15.57;;;1.50;99.90;;;;;;4913283;29;20371;-65
2024/01/16 00:14:09;;;;;;;17.13;15.40;;;1.40;99.90;;;;;;4930582;29;20336;-67
2024/01/16 00:16:46;;;;;;;22.53;15.70;;;1.50;99.90;;;;;;4915198;29;20200;-67
2024/01/16 00:19:13;;;;;;;14.83;13.77;;;1.50;99.90;;;;;;4920818;29;20597;-67
2024/01/16 00:21:41;;;;;;;15.93;14.67;;;1.50;99.90;;;;;;4935907;29;20204;-66
2024/01/16 00:24:08;;;;;;;16.93;15.33;;;1.40;99.90;;;;;;4913586;29;20200;-66
2024/01/16 00:26:36;;;;;;;18.23;16.40;;;1.40;99.90;;;;;;4913702;29;20776;-67
2024/01/16 00:29:03;;;;;;;17.93;16.00;;;1.40;99.90;;;;;;4915150;29;20211;-66
2024/01/16 00:31:30;;;;;;;16.30;14.73;;;1.40;99.90;;;;;;4913990;29;20642;-66
2024/01/16 00:33:57;;;;;;;17.20;15.57;;;1.40;99.90;;;;;;4917842;29;20199;-66
2024/01/16 00:36:24;;;;;;;17.57;15.57;;;1.40;99.90;;;;;;4897650;29;20203;-65
2024/01/16 00:38:51;;;;;;;17.03;15.47;;;1.40;99.90;;;;;;4930963;29;20204;-67
2024/01/16 00:41:18;;;;;;;17.27;15.70;;;1.40;99.90;;;;;;4922438;29;20215;-61
2024/01/16 00:43:45;;;;;;;16.27;14.93;;;1.40;99.90;;;;;;4930526;29;20200;-62
2024/01/16 00:46:12;;;;;;;18.20;16.40;;;1.40;99.90;;;;;;4917468;29;20623;-61
2024/01/16 00:48:39;;;;;;;19.50;16.47;;;1.40;99.90;;;;;;4910648;29;20255;-61
2024/01/16 00:51:06;;;;;;;17.73;16.03;;;1.40;99.90;;;;;;4916023;29;20561;-61
2024/01/16 00:53:33;;;;;;;17.37;15.77;;;1.30;99.90;;;;;;4935937;29;20200;-61
2024/01/16 00:56:00;;;;;;;17.07;14.80;;;1.30;99.90;;;;;;4912177;29;20200;-62
2024/01/16 00:58:27;;;;;;;17.77;15.90;;;1.30;99.90;;;;;;4900751;29;20271;-60
2024/01/16 01:00:54;;;;;;;17.30;15.60;;;1.30;99.90;;;;;;4921851;29;20387;-61
2024/01/16 01:03:21;;;;;;;16.93;15.53;;;1.30;99.90;;;;;;4912304;29;20577;-61
2024/01/16 01:05:48;;;;;;;20.50;16.03;;;1.20;99.90;;;;;;4902856;29;20252;-60
2024/01/16 01:08:15;;;;;;;16.47;15.17;;;1.20;99.90;;;;;;4914474;29;20219;-61
2024/01/16 01:10:42;;;;;;;16.50;15.20;;;1.10;99.90;;;;;;4919629;29;20196;-61
2024/01/16 01:13:09;;;;;;;16.80;15.10;;;1.00;99.90;;;;;;4907077;29;20207;-61
2024/01/16 01:15:36;;;;;;;18.60;15.57;;;1.00;99.90;;;;;;4909434;29;20535;-61
2024/01/16 01:18:03;;;;;;;16.37;15.17;;;1.00;99.90;;;;;;4927672;29;20204;-61
2024/01/16 01:20:31;;;;;;;16.00;14.70;;;1.10;99.90;;;;;;4910244;29;20230;-61
2024/01/16 01:22:59;;;;;;;17.17;15.60;;;1.00;99.90;;;;;;4921633;29;20283;-61
2024/01/16 01:25:26;;;;;;;16.30;14.80;;;1.10;99.90;;;;;;4920261;29;20295;-62
2024/01/16 01:27:53;;;;;;;18.17;15.87;;;1.10;99.90;;;;;;4915640;29;20216;-61
2024/01/16 01:30:20;;;;;;;19.30;17.30;;;1.10;99.90;;;;;;4912118;29;20199;-60
2024/01/16 01:32:47;;;;;;;17.67;16.03;;;1.00;99.90;;;;;;4928136;29;20207;-61
2024/01/16 01:35:17;;;;;;;16.30;14.97;;;1.00;99.90;;;;;;4928971;29;20215;-61
2024/01/16 01:37:44;;;;;;;17.70;15.73;;;0.90;99.90;;;;;;4912302;29;20597;-60
2024/01/16 01:40:12;;;;;;;17.80;15.53;;;1.00;99.90;;;;;;4925205;29;20278;-61
2024/01/16 01:42:42;;;;;;;18.00;16.23;;;1.00;99.90;;;;;;4926323;29;20227;-61
2024/01/16 01:45:10;;;;;;;20.57;15.83;;;1.10;99.90;;;;;;4913535;29;20260;-61
2024/01/16 01:47:44;;;;;;;19.50;15.83;;;1.00;99.90;;;;;;4909573;29;20224;-62
2024/01/16 01:50:13;;;;;;;17.40;15.53;;;1.00;99.90;;;;;;4925393;29;20222;-62
2024/01/16 01:52:41;;;;;;;16.40;14.93;;;0.90;99.90;;;;;;4918540;29;20188;-61
2024/01/16 01:55:12;;;;;;;17.57;16.07;;;1.00;99.90;;;;;;4918395;29;20437;-61
2024/01/16 01:57:39;;;;;;;21.20;15.87;;;1.00;99.90;;;;;;4917641;29;20200;-62
2024/01/16 02:00:07;;;;;;;15.90;14.60;;;1.00;99.90;;;;;;4924555;28;20297;-61
2024/01/16 02:02:42;;;;;;;18.07;15.43;;;1.00;99.90;;;;;;4949757;28;20250;-61
2024/01/16 02:05:10;;;;;;;17.60;14.70;;;1.00;99.90;;;;;;4938723;28;20198;-61
2024/01/16 02:07:38;;;;;;;17.27;15.57;;;1.00;99.90;;;;;;4962533;28;20218;-61
2024/01/16 02:10:06;;;;;;;16.90;15.33;;;0.90;99.90;;;;;;4954799;28;20202;-60
2024/01/16 02:12:33;;;;;;;16.87;15.10;;;0.90;99.90;;;;;;4955709;28;20195;-61
2024/01/16 02:15:00;;;;;;;17.23;15.40;;;1.00;99.90;;;;;;4952620;28;20274;-59
2024/01/16 02:17:27;;;;;;;16.87;15.37;;;1.00;99.90;;;;;;4953645;28;20199;-60
2024/01/16 02:19:54;;;;;;;18.33;16.23;;;1.00;99.90;;;;;;4954987;28;20836;-61
2024/01/16 02:22:25;;;;;;;17.60;15.97;;;1.00;99.90;;;;;;4951642;28;20220;-61
2024/01/16 02:24:52;;;;;;;22.60;16.30;;;1.00;99.90;;;;;;4935120;28;20191;-61
2024/01/16 02:27:19;;;;;;;18.07;16.37;;;1.00;99.90;;;;;;4952826;28;20294;-63
2024/01/16 02:29:46;;;;;;;17.47;15.70;;;1.00;99.90;;;;;;4942585;28;20593;-59
2024/01/16 02:32:15;;;;;;;19.67;16.63;;;1.00;99.90;;;;;;4951308;28;20206;-61
2024/01/16 02:34:43;;;;;;;17.97;16.17;;;1.00;99.90;;;;;;4957035;28;20716;-62
2024/01/16 02:37:10;;;;;;;22.60;16.20;;;1.00;99.90;;;;;;4961489;28;20290;-61
2024/01/16 02:39:37;;;;;;;19.70;17.03;;;1.00;99.90;;;;;;4939621;28;20726;-59
2024/01/16 02:42:04;;;;;;;18.70;16.77;;;1.00;99.90;;;;;;4940786;28;20284;-61
2024/01/16 02:44:31;;;;;;;18.03;16.33;;;1.00;99.90;;;;;;4944495;28;20214;-61
2024/01/16 02:46:58;;;;;;;17.67;16.13;;;1.00;99.90;;;;;;4953227;28;20377;-59
2024/01/16 02:49:25;;;;;;;21.00;16.70;;;1.00;99.90;;;;;;4916397;28;20192;-62
2024/01/16 02:51:54;;;;;;;20.60;16.33;;;1.00;99.90;;;;;;4948469;28;20195;-61
2024/01/16 02:54:21;;;;;;;18.67;16.13;;;1.10;99.90;;;;;;4916945;28;20206;-62
2024/01/16 02:56:48;;;;;;;19.40;17.37;;;1.10;99.90;;;;;;4955258;28;20238;-62
2024/01/16 02:59:15;;;;;;;23.57;18.43;;;1.10;99.90;;;;;;4943326;28;20204;-62
2024/01/16 03:05:42;;;;;;;18.87;17.07;;;1.10;99.90;;;;;;4951670;28;20181;-66
2024/01/16 03:08:09;;;;;;;18.00;16.43;;;0.90;99.90;;;;;;4949410;28;20223;-65
2024/01/16 03:10:36;;;;;;;19.83;16.73;;;0.80;99.90;;;;;;4950386;28;20187;-66
2024/01/16 03:13:03;;;;;;;18.07;16.47;;;0.80;99.90;;;;;;4954095;28;20207;-66
2024/01/16 03:15:31;;;;;;;18.73;16.83;;;0.70;99.90;;;;;;4948633;28;20199;-66
2024/01/16 03:17:58;;;;;;;22.70;17.13;;;0.80;99.90;;;;;;4950090;28;20262;-66
2024/01/16 03:20:29;;;;;;;23.17;16.77;;;0.90;99.90;;;;;;4927997;28;20499;-67
2024/01/16 03:22:56;;;;;;;19.47;17.40;;;0.90;99.90;;;;;;4935840;28;20285;-64
2024/01/16 03:25:24;;;;;;;19.30;17.50;;;0.90;99.90;;;;;;4948705;28;20227;-66
2024/01/16 03:27:51;;;;;;;17.83;16.33;;;1.00;99.90;;;;;;4937108;28;20687;-64
2024/01/16 03:30:18;;;;;;;18.27;16.47;;;1.00;99.90;;;;;;4949724;28;20227;-64
2024/01/16 03:32:45;;;;;;;19.57;17.13;;;1.00;99.90;;;;;;4932610;28;20278;-65
2024/01/16 03:35:12;;;;;;;16.70;15.10;;;1.00;99.90;;;;;;4948780;28;20205;-65
2024/01/16 03:37:39;;;;;;;17.37;15.87;;;1.00;99.90;;;;;;4920461;29;20582;-63
2024/01/16 03:40:07;;;;;;;17.50;15.90;;;1.00;99.90;;;;;;4933878;28;20199;-64
2024/01/16 03:42:34;;;;;;;17.67;15.83;;;1.00;99.90;;;;;;4945441;28;20276;-66
2024/01/16 03:45:01;;;;;;;15.90;14.70;;;1.00;99.90;;;;;;4938202;29;20191;-66
2024/01/16 03:47:28;;;;;;;16.30;14.90;;;1.00;99.90;;;;;;4947556;28;20686;-63
2024/01/16 03:49:55;;;;;;;19.33;16.87;;;1.10;99.90;;;;;;4930983;28;20195;-62
2024/01/16 03:52:22;;;;;;;18.93;16.40;;;1.10;99.90;;;;;;4949042;28;20215;-63
2024/01/16 03:54:49;;;;;;;18.07;16.47;;;1.10;99.90;;;;;;4945910;28;20259;-65
2024/01/16 03:57:16;;;;;;;18.83;15.30;;;1.20;99.90;;;;;;4948839;28;20572;-64
2024/01/16 03:59:43;;;;;;;20.13;16.60;;;1.10;99.90;;;;;;4956129;28;20702;-65
2024/01/16 04:02:10;;;;;;;17.87;16.07;;;1.10;99.90;;;;;;4960564;28;20194;-63
2024/01/16 04:04:37;;;;;;;17.30;15.73;;;1.10;99.90;;;;;;4941666;28;20233;-63
2024/01/16 04:07:04;;;;;;;19.50;15.87;;;1.10;99.90;;;;;;4964679;28;20733;-66
2024/01/16 04:09:31;;;;;;;18.07;16.43;;;1.10;99.90;;;;;;4935419;28;20203;-66
2024/01/16 04:11:58;;;;;;;17.97;16.30;;;1.20;99.90;;;;;;4960170;28;20573;-66
2024/01/16 04:14:25;;;;;;;19.20;16.83;;;1.30;99.90;;;;;;4951939;28;20199;-65
2024/01/16 04:16:52;;;;;;;17.90;16.10;;;1.20;99.90;;;;;;4947952;28;20247;-66
2024/01/16 04:19:19;;;;;;;20.47;17.40;;;1.20;99.90;;;;;;4951904;28;20332;-65
2024/01/16 04:21:46;;;;;;;20.43;18.37;;;1.20;99.90;;;;;;4949583;28;20279;-65
2024/01/16 04:24:13;;;;;;;18.50;16.73;;;1.20;99.90;;;;;;4951386;28;20235;-66
2024/01/16 04:26:40;;;;;;;19.73;17.67;;;1.10;99.90;;;;;;4943209;28;20561;-66
2024/01/16 04:29:08;;;;;;;20.57;18.33;;;1.10;99.90;;;;;;4958474;28;20664;-66
2024/01/16 04:31:41;;;;;;;20.30;18.30;;;1.10;99.90;;;;;;4945939;29;20187;-64
2024/01/16 04:34:08;;;;;;;19.57;17.73;;;1.10;99.90;;;;;;4968105;28;20552;-66
2024/01/16 04:36:35;;;;;;;19.90;17.80;;;1.10;99.90;;;;;;4952053;28;20206;-66
2024/01/16 04:39:03;;;;;;;20.80;18.23;;;1.10;99.90;;;;;;4950743;28;20202;-66
2024/01/16 04:41:30;;;;;;;19.20;16.97;;;1.10;99.90;;;;;;4930947;29;20203;-64
2024/01/16 04:43:57;;;;;;;22.13;17.97;;;1.10;99.90;;;;;;4963891;28;20249;-65
2024/01/16 04:46:24;;;;;;;19.70;17.33;;;1.20;99.90;;;;;;4962879;28;20214;-66
2024/01/16 04:48:51;;;;;;;20.97;18.57;;;1.20;99.90;;;;;;4941530;28;20270;-65
2024/01/16 04:51:18;;;;;;;19.40;17.53;;;1.20;99.90;;;;;;4946730;28;20236;-66
2024/01/16 04:53:45;;;;;;;20.77;18.60;;;1.20;99.90;;;;;;4944268;28;20233;-64
2024/01/16 04:56:12;;;;;;;20.97;18.70;;;1.20;99.90;;;;;;4945016;28;21041;-65
2024/01/16 04:58:39;;;;;;;19.47;17.47;;;1.20;99.90;;;;;;4947622;28;20195;-65
2024/01/16 05:01:06;;;;;;;23.20;18.70;;;1.20;99.90;;;;;;4949389;28;20242;-66
2024/01/16 05:03:33;;;;;;;20.73;18.57;;;1.20;99.90;;;;;;4951278;28;20325;-66
2024/01/16 05:06:00;;;;;;;21.40;19.03;;;1.30;99.90;;;;;;4937402;29;20294;-66
2024/01/16 05:08:27;;;;;;;20.70;18.70;;;1.30;99.90;;;;;;4953196;28;20229;-66
2024/01/16 05:10:54;;;;;;;22.57;18.77;;;1.20;99.90;;;;;;4938262;28;20206;-67
2024/01/16 05:13:21;;;;;;;27.43;19.80;;;1.20;99.90;;;;;;4954060;28;20190;-67
2024/01/16 05:15:48;;;;;;;27.30;20.40;;;1.20;99.90;;;;;;4959716;28;20199;-66
2024/01/16 05:18:15;;;;;;;20.13;18.17;;;1.20;99.90;;;;;;4942174;28;20207;-66
2024/01/16 05:20:43;;;;;;;24.97;18.73;;;1.20;99.90;;;;;;4952329;28;20200;-66
2024/01/16 05:23:09;;;;;;;21.07;18.97;;;1.30;99.90;;;;;;4953714;28;20203;-62
2024/01/16 05:25:37;;;;;;;26.97;18.73;;;1.30;99.90;;;;;;4953554;28;20198;-60
2024/01/16 05:28:04;;;;;;;50.43;18.87;;;1.30;99.90;;;;;;4938629;28;20206;-61
2024/01/16 05:30:32;;;;;;;21.43;18.40;;;1.30;99.90;;;;;;4935988;29;20624;-61
2024/01/16 05:33:00;;;;;;;23.13;19.97;;;1.30;99.90;;;;;;4955393;28;20186;-61
2024/01/16 05:35:28;;;;;;;20.20;18.20;;;1.30;99.90;;;;;;4951900;28;20201;-61
2024/01/16 05:37:55;;;;;;;22.77;19.60;;;1.30;99.90;;;;;;4930843;29;20210;-62
2024/01/16 05:40:22;;;;;;;26.33;19.43;;;1.40;99.90;;;;;;4944722;28;20202;-61
2024/01/16 05:42:49;;;;;;;23.30;19.07;;;1.40;99.90;;;;;;4947688;28;20203;-62
2024/01/16 05:45:17;;;;;;;20.73;18.07;;;1.40;99.90;;;;;;4934365;28;20279;-60
2024/01/16 05:47:44;;;;;;;20.80;18.80;;;1.40;99.90;;;;;;4935143;29;20219;-61
2024/01/16 05:50:11;;;;;;;21.97;19.63;;;1.40;99.90;;;;;;4942366;28;20191;-61
2024/01/16 05:52:40;;;;;;;25.33;19.70;;;1.40;99.90;;;;;;4963840;28;20197;-61
2024/01/16 05:55:09;;;;;;;22.70;20.20;;;1.40;99.90;;;;;;4964612;28;20264;-61
2024/01/16 05:57:37;;;;;;;22.57;19.47;;;1.40;99.90;;;;;;4927487;29;20223;-61
2024/01/16 06:00:05;;;;;;;20.77;18.67;;;1.40;99.90;;;;;;4937520;28;20241;-61
2024/01/16 06:02:32;;;;;;;21.57;19.47;;;1.40;99.90;;;;;;4950373;28;20231;-61
2024/01/16 06:05:02;;;;;;;20.27;18.13;;;1.40;99.90;;;;;;4951464;28;20210;-61
2024/01/16 06:07:29;;;;;;;20.63;18.63;;;1.40;99.90;;;;;;4961223;28;20190;-59
2024/01/16 06:09:56;;;;;;;20.93;18.80;;;1.30;99.90;;;;;;4964154;28;20278;-61
2024/01/16 06:12:23;;;;;;;19.73;17.80;;;1.30;99.90;;;;;;4961801;28;20402;-60
2024/01/16 06:14:50;;;;;;;20.83;18.13;;;1.30;99.90;;;;;;4942169;28;20222;-61
2024/01/16 06:17:17;;;;;;;23.57;18.73;;;1.30;99.90;;;;;;4939332;28;20244;-61
2024/01/16 06:19:44;;;;;;;22.73;18.13;;;1.30;99.90;;;;;;4935356;28;20376;-60
2024/01/16 06:22:11;;;;;;;20.00;18.13;;;1.30;99.90;;;;;;4937730;28;20198;-61
2024/01/16 06:24:38;;;;;;;19.83;17.87;;;1.30;99.90;;;;;;4948430;28;20269;-58
2024/01/16 06:27:09;;;;;;;18.77;16.97;;;1.30;99.90;;;;;;4958578;28;20199;-61
2024/01/16 06:29:36;;;;;;;21.57;19.30;;;1.30;99.90;;;;;;4954863;28;20224;-60
2024/01/16 06:32:03;;;;;;;22.97;18.33;;;1.20;99.90;;;;;;4953520;28;20748;-65
2024/01/16 06:34:30;;;;;;;20.10;18.23;;;1.20;99.90;;;;;;4960114;28;20190;-66
2024/01/16 06:36:57;;;;;;;23.77;21.37;;;1.20;99.90;;;;;;4955667;28;20615;-65
2024/01/16 06:39:24;;;;;;;30.37;19.93;;;1.20;99.90;;;;;;4940445;28;20289;-66
2024/01/16 06:41:51;;;;;;;22.93;20.40;;;1.20;99.90;;;;;;4960192;28;20273;-65
2024/01/16 06:44:21;;;;;;;23.33;19.87;;;1.30;99.90;;;;;;4952140;28;20697;-66
2024/01/16 06:46:48;;;;;;;22.90;20.50;;;1.30;99.90;;;;;;4944193;29;20202;-66
2024/01/16 06:49:15;;;;;;;22.50;20.20;;;1.40;99.90;;;;;;4962924;28;20207;-66
2024/01/16 06:51:42;;;;;;;21.97;19.77;;;1.40;99.90;;;;;;4959345;28;20655;-66
2024/01/16 06:54:09;;;;;;;19.97;18.07;;;1.40;99.90;;;;;;4938034;28;20191;-66
2024/01/16 06:56:36;;;;;;;21.87;18.80;;;1.40;99.90;;;;;;4943378;28;20261;-66
2024/01/16 06:59:03;;;;;;;21.10;19.10;;;1.40;99.90;;;;;;4952974;28;20661;-65
2024/01/16 07:01:32;;;;;;;19.87;18.07;;;1.40;99.90;;;;;;4944155;28;20238;-66
2024/01/16 07:03:58;;;;;;;20.97;18.27;;;1.40;99.90;;;;;;4943309;28;20626;-65
2024/01/16 07:06:26;;;;;;;19.20;17.53;;;1.40;99.90;;;;;;4959424;28;20195;-66
2024/01/16 07:08:53;;;;;;;19.20;17.63;;;1.40;99.90;;;;;;4961643;28;20253;-64
2024/01/16 07:11:20;;;;;;;18.80;17.17;;;1.40;99.90;;;;;;4943259;29;20198;-65
2024/01/16 07:13:50;;;;;;;22.13;17.47;;;1.50;99.90;;;;;;4944611;29;20631;-64
2024/01/16 07:16:17;;;;;;;18.50;16.80;;;1.50;99.90;;;;;;4953670;28;20203;-66
2024/01/16 07:18:44;;;;;;;21.03;18.73;;;1.40;99.90;;;;;;4954621;28;20218;-65
2024/01/16 07:21:23;;;;;;;19.13;17.50;;;1.40;99.90;;;;;;4965509;28;20474;-65
2024/01/16 07:23:50;;;;;;;20.43;16.30;;;1.40;99.90;;;;;;4947637;28;20198;-64
2024/01/16 07:26:17;;;;;;;19.77;17.83;;;1.40;99.90;;;;;;4957379;28;20343;-66
2024/01/16 07:28:44;;;;;;;19.03;17.27;;;1.40;99.90;;;;;;4955748;28;20208;-65
2024/01/16 07:31:11;;;;;;;19.07;17.33;;;1.40;99.90;;;;;;4952295;28;20230;-64
2024/01/16 07:33:38;;;;;;;20.00;18.00;;;1.40;99.90;;;;;;4951879;28;20282;-65
2024/01/16 07:36:07;;;;;;;22.80;17.13;;;1.40;99.90;;;;;;4938042;28;20282;-66
2024/01/16 07:38:36;;;;;;;19.40;17.60;;;1.50;99.90;;;;;;4955981;28;20199;-66
2024/01/16 07:41:03;;;;;;;20.30;18.27;;;1.40;99.90;;;;;;4937941;28;20282;-65
2024/01/16 07:43:31;;;;;;;19.00;17.00;;;1.40;99.90;;;;;;4936611;28;20202;-63
2024/01/16 07:45:59;;;;;;;18.33;16.83;;;1.40;99.90;;;;;;4956650;28;20199;-65
2024/01/16 07:48:26;;;;;;;18.03;16.60;;;1.40;99.90;;;;;;4969611;28;20293;-67
2024/01/16 07:50:53;;;;;;;18.90;17.20;;;1.40;99.90;;;;;;4938770;28;20206;-65
2024/01/16 07:53:20;;;;;;;21.17;17.13;;;1.40;99.90;;;;;;4950372;28;20199;-65
2024/01/16 07:55:48;;;;;;;18.90;17.10;;;1.50;99.90;;;;;;4940913;29;20563;-67
2024/01/16 07:58:16;;;;;;;18.30;16.80;;;1.50;99.90;;;;;;4943263;28;20269;-67
2024/01/16 08:00:43;;;;;;;17.97;16.57;;;1.50;99.90;;;;;;4922822;29;20310;-66
2024/01/16 08:03:14;;;;;;;18.67;16.70;;;1.50;99.90;;;;;;4936431;29;20203;-64
2024/01/16 08:05:41;;;;;;;21.13;17.90;;;1.50;99.90;;;;;;4958042;28;20273;-66
2024/01/16 08:08:09;;;;;;;19.37;17.50;;;1.60;99.90;;;;;;4927096;28;20297;-66
2024/01/16 08:10:37;;;;;;;18.83;17.23;;;1.60;99.90;;;;;;4942099;28;20298;-66
2024/01/16 08:13:04;;;;;;;18.87;17.07;;;1.60;99.90;;;;;;4943021;29;20213;-66
2024/01/16 08:15:31;;;;;;;20.13;18.23;;;1.60;99.90;;;;;;4963784;28;20328;-65
2024/01/16 08:17:58;;;;;;;19.27;17.57;;;1.60;99.90;;;;;;4956431;28;20286;-68
2024/01/16 08:20:26;;;;;;;20.40;18.10;;;1.70;99.90;;;;;;4927787;29;20203;-65
2024/01/16 08:22:53;;;;;;;20.57;18.67;;;1.70;99.90;;;;;;4955649;28;20218;-65
2024/01/16 08:25:20;;;;;;;20.30;17.70;;;1.70;99.90;;;;;;4938267;28;20226;-66
2024/01/16 08:27:48;;;;;;;23.90;18.53;;;1.70;99.90;;;;;;4928273;28;20292;-65
2024/01/16 08:30:15;;;;;;;18.87;17.27;;;1.70;99.90;;;;;;4957545;28;20210;-65
2024/01/16 08:32:42;;;;;;;26.17;18.93;;;1.70;99.90;;;;;;4938060;28;20560;-67
2024/01/16 08:35:10;;;;;;;22.20;19.83;;;1.70;99.90;;;;;;4960542;28;20207;-67
2024/01/16 08:37:37;;;;;;;21.03;18.93;;;1.70;99.90;;;;;;4959811;28;20299;-65
2024/01/16 08:40:04;;;;;;;20.30;17.93;;;1.70;99.90;;;;;;4950504;28;20512;-66
2024/01/16 08:42:31;;;;;;;21.83;19.67;;;1.70;99.90;;;;;;4951124;28;20226;-64
2024/01/16 08:44:58;;;;;;;22.63;20.53;;;1.80;99.90;;;;;;4913077;28;20294;-64
2024/01/16 08:47:26;;;;;;;22.47;19.67;;;1.70;99.90;;;;;;4956779;28;20277;-66
2024/01/16 08:49:53;;;;;;;23.87;21.27;;;1.70;99.90;;;;;;4939333;29;20207;-65
2024/01/16 08:52:20;;;;;;;22.63;18.90;;;1.70;99.90;;;;;;4956819;28;20297;-64
2024/01/16 08:54:48;;;;;;;23.47;20.70;;;1.80;99.90;;;;;;4958093;28;20295;-65
2024/01/16 08:57:15;;;;;;;23.57;20.73;;;1.70;99.90;;;;;;4961183;28;20287;-65
2024/01/16 08:59:44;;;;;;;21.57;19.47;;;1.70;99.90;;;;;;4933138;28;20250;-65
2024/01/16 09:02:12;;;;;;;22.10;19.73;;;1.70;99.90;;;;;;4924801;28;20663;-65
2024/01/16 09:04:40;;;;;;;23.30;19.60;;;1.80;99.90;;;;;;4954739;28;20216;-64
2024/01/16 09:07:08;;;;;;;20.77;18.63;;;1.80;99.90;;;;;;4940375;28;20666;-66
2024/01/16 09:09:35;;;;;;;20.17;18.23;;;1.80;99.90;;;;;;4956257;28;20309;-64
2024/01/16 09:12:03;;;;;;;20.93;18.87;;;1.80;99.90;;;;;;4955973;28;20642;-65
2024/01/16 09:14:30;;;;;;;19.10;17.60;;;1.80;99.90;;;;;;4964627;28;20273;-64
2024/01/16 09:16:57;;;;;;;19.83;18.13;;;1.70;99.90;;;;;;4954678;28;20269;-65
2024/01/16 09:19:24;;;;;;;20.23;17.73;;;1.70;99.90;;;;;;4945097;28;20298;-67
2024/01/16 09:21:53;;;;;;;19.83;17.50;;;1.80;99.90;;;;;;4954870;28;20257;-65
2024/01/16 09:24:20;;;;;;;20.20;18.30;;;1.70;99.90;;;;;;4956755;28;20194;-66
2024/01/16 09:26:47;;;;;;;21.77;18.20;;;1.70;99.90;;;;;;4955187;28;20246;-66
2024/01/16 09:29:14;;;;;;;19.07;17.30;;;1.70;99.90;;;;;;4941266;28;20273;-66
2024/01/16 09:31:42;;;;;;;18.47;16.87;;;1.70;99.90;;;;;;4916350;29;20199;-66
2024/01/16 09:34:09;;;;;;;17.80;16.40;;;1.70;99.90;;;;;;4957174;28;20297;-66
2024/01/16 09:36:36;;;;;;;18.03;16.40;;;1.60;99.90;;;;;;4934424;29;20560;-67
2024/01/16 09:39:08;;;;;;;18.17;16.20;;;1.60;99.90;;;;;;4954211;28;20237;-67
2024/01/16 09:41:35;;;;;;;18.43;16.13;;;1.60;99.90;;;;;;4957021;28;20248;-66
2024/01/16 09:44:02;;;;;;;18.53;16.40;;;1.60;99.90;;;;;;4951622;28;20659;-65
2024/01/16 09:46:31;;;;;;;20.33;16.07;;;1.50;99.90;;;;;;4948266;28;20190;-64
2024/01/16 09:49:01;;;;;;;17.07;15.80;;;1.50;99.90;;;;;;4965070;28;20312;-65
2024/01/16 09:51:29;;;;;;;16.40;15.03;;;1.60;99.90;;;;;;4931324;28;20276;-66
2024/01/16 09:53:56;;;;;;;17.03;15.53;;;1.60;99.90;;;;;;4971334;28;20217;-65
2024/01/16 09:56:24;;;;;;;16.33;14.90;;;1.60;99.90;;;;;;4943721;29;20291;-65
2024/01/16 09:58:57;;;;;;;16.40;14.87;;;1.60;99.90;;;;;;4937383;29;20666;-65
2024/01/16 10:01:27;;;;;;;15.43;14.23;;;1.50;99.90;;;;;;4955326;28;20234;-66
2024/01/16 10:03:54;;;;;;;14.93;13.90;;;1.60;99.90;;;;;;4957407;28;20199;-66
2024/01/16 10:06:22;;;;;;;16.03;14.50;;;1.60;99.90;;;;;;4962093;28;20308;-66
2024/01/16 10:08:50;;;;;;;15.83;14.60;;;1.50;99.90;;;;;;4961923;28;20202;-66
2024/01/16 10:11:17;;;;;;;15.57;14.20;;;1.60;99.90;;;;;;4968161;28;20277;-65
2024/01/16 10:13:44;;;;;;;15.20;14.10;;;1.60;99.90;;;;;;4968083;28;20190;-66
2024/01/16 10:16:11;;;;;;;15.47;14.13;;;1.70;99.90;;;;;;4951985;28;20273;-64
2024/01/16 10:18:38;;;;;;;14.97;13.87;;;1.80;99.90;;;;;;4947165;28;20206;-64
2024/01/16 10:21:21;;;;;;;15.10;14.10;;;1.90;99.90;;;;;;4953341;28;20194;-64
2024/01/16 10:23:50;;;;;;;14.63;13.67;;;1.90;99.90;;;;;;4946140;28;20203;-65
2024/01/16 10:26:18;;;;;;;15.00;13.77;;;1.90;99.90;;;;;;4958152;28;20548;-64
2024/01/16 10:28:45;;;;;;;15.57;14.17;;;1.90;99.90;;;;;;4959452;28;20701;-65
2024/01/16 10:31:16;;;;;;;16.33;14.70;;;1.90;99.90;;;;;;4950102;28;20190;-65
2024/01/16 10:33:43;;;;;;;15.73;14.33;;;2.00;99.90;;;;;;4957632;28;20663;-65
2024/01/16 10:36:16;;;;;;;14.93;14.03;;;2.00;99.90;;;;;;4945749;28;20206;-65
2024/01/16 10:38:45;;;;;;;15.57;14.00;;;2.10;99.90;;;;;;4951919;28;20206;-65
2024/01/16 10:41:17;;;;;;;15.97;14.53;;;2.10;99.90;;;;;;4959960;28;20195;-66
2024/01/16 10:43:44;;;;;;;14.83;13.73;;;2.20;99.90;;;;;;4944023;28;20198;-66
2024/01/16 10:46:15;;;;;;;14.80;13.90;;;2.30;99.90;;;;;;4957276;28;20325;-67
2024/01/16 10:48:44;;;;;;;15.70;14.57;;;2.30;99.90;;;;;;4941632;28;20196;-66
2024/01/16 10:51:15;;;;;;;19.13;15.07;;;2.30;99.90;;;;;;4945519;28;20205;-67
2024/01/16 10:53:44;;;;;;;16.77;15.03;;;2.20;99.90;;;;;;4954063;28;20250;-67
2024/01/16 10:56:12;;;;;;;16.20;14.83;;;2.20;99.90;;;;;;4965264;28;20374;-66
2024/01/16 10:58:43;;;;;;;16.13;15.00;;;2.10;99.90;;;;;;4946087;28;20302;-66
2024/01/16 11:01:13;;;;;;;16.53;14.73;;;2.00;99.90;;;;;;4930322;29;20600;-66
2024/01/16 11:03:50;;;;;;;19.43;15.80;;;2.10;99.90;;;;;;4952712;28;20210;-66
2024/01/16 11:06:18;;;;;;;15.47;14.47;;;2.10;99.90;;;;;;4931703;28;20671;-66
2024/01/16 11:08:47;;;;;;;16.20;14.70;;;2.10;99.90;;;;;;4956491;28;20647;-66
2024/01/16 11:11:15;;;;;;;15.87;14.43;;;2.00;99.90;;;;;;4955053;28;20524;-66
2024/01/16 11:13:44;;;;;;;15.90;14.73;;;2.00;99.90;;;;;;4947320;28;20655;-66
2024/01/16 11:16:11;;;;;;;17.20;15.60;;;2.10;99.90;;;;;;4935630;29;20202;-65
2024/01/16 11:18:39;;;;;;;15.40;14.27;;;2.20;99.90;;;;;;4932476;29;20281;-66
2024/01/16 11:21:12;;;;;;;15.53;14.23;;;2.20;99.90;;;;;;4952933;28;20191;-66
2024/01/16 11:23:45;;;;;;;16.17;14.40;;;2.30;99.90;;;;;;4938470;28;20552;-66
2024/01/16 11:26:32;;;;;;;15.37;14.13;;;2.40;99.90;;;;;;4956375;28;20195;-66
2024/01/16 11:29:21;;;;;;;15.97;14.30;;;2.50;99.90;;;;;;4950455;28;20262;-66
2024/01/16 11:31:48;;;;;;;15.83;14.43;;;2.60;99.90;;;;;;4946327;28;20261;-67
2024/01/16 11:34:15;;;;;;;16.47;14.77;;;2.80;99.90;;;;;;4966333;28;20221;-66
2024/01/16 11:36:55;;;;;;;15.33;14.23;;;2.90;99.90;;;;;;4962399;28;20209;-67
2024/01/16 11:39:27;;;;;;;16.13;14.83;;;2.90;99.90;;;;;;4935604;28;20276;-66
2024/01/16 11:41:59;;;;;;;15.67;14.57;;;2.70;99.90;;;;;;4942027;28;20203;-67
2024/01/16 11:44:42;;;;;;;16.00;14.70;;;2.60;99.90;;;;;;4918530;29;20211;-66
2024/01/16 11:47:16;;;;;;;17.40;15.70;;;2.70;99.90;;;;;;4945443;28;20281;-65
2024/01/16 11:49:43;;;;;;;16.63;14.83;;;2.70;99.90;;;;;;4957609;28;20239;-67
2024/01/16 11:52:13;;;;;;;17.03;15.50;;;2.70;99.90;;;;;;4961297;28;20246;-66
2024/01/16 11:54:41;;;;;;;15.47;14.40;;;2.80;99.90;;;;;;4949161;28;20202;-66
2024/01/16 11:57:53;;;;;;;15.43;14.43;;;2.70;99.90;;;;;;4961831;28;20198;-67
2024/01/16 12:00:21;;;;;;;16.10;14.60;;;2.90;99.90;;;;;;4958348;28;20238;-66
2024/01/16 12:02:54;;;;;;;15.77;14.57;;;2.90;99.90;;;;;;4935640;28;20651;-67
2024/01/16 12:05:21;;;;;;;15.67;14.47;;;3.00;99.90;;;;;;4936099;28;20250;-65
2024/01/16 12:07:50;;;;;;;16.53;14.77;;;3.20;99.90;;;;;;4957976;28;20211;-66
2024/01/16 12:10:19;;;;;;;15.03;14.10;;;3.20;99.90;;;;;;4959466;28;20209;-66
2024/01/16 12:12:48;;;;;;;15.83;14.63;;;3.20;99.90;;;;;;4933349;29;20627;-61
2024/01/16 12:15:16;;;;;;;16.37;14.90;;;3.30;99.90;;;;;;4937005;28;20257;-61
2024/01/16 12:17:56;;;;;;;17.90;14.63;;;3.50;99.90;;;;;;4950822;28;20206;-62
2024/01/16 12:20:28;;;;;;;15.80;14.63;;;3.50;99.90;;;;;;4938968;28;20281;-61
2024/01/16 12:23:09;;;;;;;15.30;14.20;;;3.30;99.90;;;;;;4954866;28;20194;-61
2024/01/16 12:25:38;;;;;;;15.73;14.43;;;3.60;99.90;;;;;;4942721;28;20203;-62
2024/01/16 12:28:25;;;;;;;15.30;14.30;;;3.80;99.90;;;;;;4944029;28;20592;-61
2024/01/16 12:30:55;;;;;;;16.20;14.77;;;3.90;99.90;;;;;;4953842;28;20302;-61
2024/01/16 12:33:22;;;;;;;16.90;15.57;;;4.10;99.90;;;;;;4950706;28;20191;-62
2024/01/16 12:35:49;;;;;;;16.30;14.93;;;3.90;99.90;;;;;;4960739;28;20202;-61
2024/01/16 12:38:17;;;;;;;15.93;14.67;;;4.20;99.90;;;;;;4933488;28;20198;-62
2024/01/16 12:40:51;;;;;;;16.23;14.70;;;4.40;99.90;;;;;;4951135;28;20225;-62
2024/01/16 12:43:18;;;;;;;16.70;15.20;;;5.00;99.90;;;;;;4934758;28;20268;-61
2024/01/16 12:45:45;;;;;;;16.27;14.97;;;5.10;99.90;;;;;;4944956;28;20211;-61